Pagrindinis puslapis
METAR-TAF:

METAR-TAF

Oro uostai :

Rangūnas, Mianmaras

platuma: 16-46N, ilguma: 096-10E, Aukštis: 14 m

Dabartinis oras

Ataskaita buvo paskelbta 20 minutes, ne 03:00 UTC
Vėjas 6 kt iš Pietų/Pietryčių
Temperatūra 27°C
Drėgmė 94%
Slėgis 1009 hPa
Matomumas: 7000 m
Su prošvaistėmis ne aukštis 1300 ft
Mažai debesys ne aukštis 1800 ft, Liūtiniai kamuoliniai debesys.
Apsiniaukę ne aukštis 10000 ft

METAR: VYYY 220300Z 16006KT 7000 BKN013 FEW018CB OVC100 27/26 Q1009

Laikas: 09:50 (03:20 UTC)

Prognozė

Ataskaita buvo paskelbta 4 valandos ir 20 minutes, ne 23:00 UTC
Prognozė galioja nuo 22 metu 00 UTC su 22 metu 24 UTC
Vėjas 8 kt iš Pietvakarių
Matomumas: 6000 m
Su prošvaistėmis ne aukštis 1200 ft
Mažai debesys ne aukštis 1600 ft, Liūtiniai kamuoliniai debesys.
Su prošvaistėmis ne aukštis 8000 ft
Laikinai
nuo 22 metu 00 UTC su 22 metu 06 UTC
Matomumas: 5000 m
lietus
Laikinai
nuo 22 metu 06 UTC su 22 metu 12 UTC
Matomumas: 3000 m

TAF: VYYY 212300Z 2200/2224 23008KT 6000 BKN012 FEW016CB BKN080 TEMPO 2200/2206 5000 -RA TEMPO 2206/2212 3000 SHRA/TSRA

Orai ataskaitas ir orų prognozės (METAR, TAF).

turimą stotys yra geltonos ir raudonos taškus žemėlapyje.

Perkelti pele per norėdami pamatyti stoties vardą.

Tada spustelėkite, norėdami matyti oro stebėjimo ir prognozės.

Norėdami pakeisti žemėlapį: spustelėkite ant žalios mygtukų su juodo kryžiaus žemyn,; žalią mygtuką su brūkšneliu, jei norite nutolinti; arba žalių rodyklių gretimoms žemėlapius.


METAR-TAF: